Time;durP1;ratioP1;P1;durP2;ratioP2;P2;SDS_P1;SDS_P2;PMS_P1;PMS_P2;Temp;Humidity;BMP_temperature;BMP_pressure;BME280_temperature;BME280_humidity;BME280_pressure;Samples;Min_cycle;Max_cycle;Signal;HPM_P1;HPM_P2
2022/09/05 00:00:13;;;;;;;19.77;16.33;;;;;;;20.19;68.86;101910.22;5057494;28;20024;-82
2022/09/05 00:03:16;;;;;;;20.75;15.30;;;;;;;20.20;68.88;101921.19;5046997;28;20070;-84
2022/09/05 00:06:04;;;;;;;18.48;16.20;;;;;;;20.19;68.90;101913.06;5040843;28;20040;-83
2022/09/05 00:08:51;;;;;;;24.83;16.90;;;;;;;20.08;69.34;101911.13;5056041;28;22643;-84
2022/09/05 00:11:34;;;;;;;19.95;15.77;;;;;;;20.09;69.40;101903.41;5035186;28;20036;-84
2022/09/05 00:14:22;;;;;;;19.15;15.55;;;;;;;19.98;69.81;101903.50;5033294;28;20551;-82
2022/09/05 00:17:20;;;;;;;21.30;14.75;;;;;;;20.04;69.74;101906.69;5051458;28;20032;-83
2022/09/05 00:20:15;;;;;;;19.50;15.20;;;;;;;20.01;69.10;101899.81;5022606;28;20409;-82
2022/09/05 00:22:49;;;;;;;17.45;14.63;;;;;;;20.03;68.58;101894.53;5055648;28;20110;-82
2022/09/05 00:26:00;;;;;;;16.52;13.77;;;;;;;19.93;68.93;101900.31;5043244;28;20123;-84
2022/09/05 00:29:04;;;;;;;19.77;14.30;;;;;;;19.91;69.58;101903.56;5043818;28;20042;-82
2022/09/05 00:31:32;;;;;;;17.38;13.77;;;;;;;19.90;69.22;101907.59;5038008;28;20033;-84
2022/09/05 00:34:08;;;;;;;16.73;13.88;;;;;;;19.98;68.68;101903.50;5056316;28;20009;-83
2022/09/05 00:36:46;;;;;;;19.83;14.52;;;;;;;19.85;68.75;101900.34;5035155;28;20046;-82
2022/09/05 00:39:21;;;;;;;19.05;14.20;;;;;;;19.77;69.18;101892.31;5036706;28;20531;-82
2022/09/05 00:41:50;;;;;;;17.20;13.77;;;;;;;19.76;69.29;101907.75;5031039;28;20036;-83
2022/09/05 00:44:19;;;;;;;18.98;14.35;;;;;;;19.83;68.54;101902.00;5024761;28;20036;-83
2022/09/05 00:47:03;;;;;;;16.05;13.75;;;;;;;19.81;68.81;101898.75;5033949;28;20040;-83
2022/09/05 00:49:42;;;;;;;15.05;12.73;;;;;;;19.83;68.65;101902.00;5052140;28;20116;-82
2022/09/05 00:52:16;;;;;;;14.88;12.25;;;;;;;19.83;68.14;101902.00;5034754;28;20040;-83
2022/09/05 00:55:09;;;;;;;13.88;12.18;;;;;;;19.80;68.41;101900.81;5051923;28;20504;-82
2022/09/05 00:57:58;;;;;;;15.70;11.20;;;;;;;19.78;68.18;101896.78;5052690;28;20491;-83
2022/09/05 01:00:44;;;;;;;14.10;11.52;;;;;;;19.74;68.30;101901.66;5032815;28;20032;-83
2022/09/05 01:03:29;;;;;;;13.25;11.07;;;;;;;19.79;67.89;101901.22;5035736;28;20051;-83
2022/09/05 01:06:28;;;;;;;12.50;11.07;;;;;;;19.74;68.24;101896.00;5034568;28;20043;-82
2022/09/05 01:09:08;;;;;;;14.35;10.93;;;;;;;19.67;67.91;101894.78;5035223;28;20039;-83
2022/09/05 01:11:48;;;;;;;16.33;13.57;;;;;;;19.64;69.04;101889.91;5025614;28;20124;-84
2022/09/05 01:14:31;;;;;;;12.95;10.32;;;;;;;19.67;67.86;101889.09;5051909;28;20277;-84
2022/09/05 01:17:07;;;;;;;14.23;11.55;;;;;;;19.62;68.73;101891.56;5047459;28;20044;-83
2022/09/05 01:19:53;;;;;;;12.85;10.20;;;;;;;19.56;68.04;101894.03;5035256;28;20410;-83
2022/09/05 01:22:57;;;;;;;11.93;10.73;;;;;;;19.53;68.80;101900.56;5054166;28;20189;-83
2022/09/05 01:25:28;;;;;;;13.40;10.60;;;;;;;19.56;68.59;101896.06;5055081;28;20667;-84
2022/09/05 01:28:17;;;;;;;13.82;10.50;;;;;;;19.53;68.23;101894.06;5039775;28;20044;-82
2022/09/05 01:30:51;;;;;;;13.73;9.48;;;;;;;19.57;68.34;101901.34;5036685;28;20160;-83
2022/09/05 01:33:22;;;;;;;12.60;10.13;;;;;;;19.56;67.69;101893.22;5039944;28;20033;-83
2022/09/05 01:36:17;;;;;;;11.90;10.63;;;;;;;19.48;68.29;101901.00;5037695;28;20094;-83
2022/09/05 01:38:55;;;;;;;14.18;10.23;;;;;;;19.47;68.05;101900.19;5054561;28;20048;-83
2022/09/05 01:41:27;;;;;;;14.75;10.68;;;;;;;19.48;68.42;101901.00;5055193;28;20400;-83
2022/09/05 01:44:18;;;;;;;16.05;10.80;;;;;;;19.38;69.64;101899.03;5056361;28;20025;-83
2022/09/05 01:47:05;;;;;;;14.07;11.88;;;;;;;19.33;68.79;101905.13;5041160;28;20496;-83
2022/09/05 01:49:50;;;;;;;11.52;9.68;;;;;;;19.28;68.55;101884.47;5038803;28;20325;-83
2022/09/05 01:52:45;;;;;;;13.35;10.93;;;;;;;19.38;68.24;101899.03;5040543;28;20032;-84
2022/09/05 01:55:25;;;;;;;12.93;10.05;;;;;;;19.26;68.96;101892.59;5051023;28;20472;-83
2022/09/05 01:57:54;;;;;;;13.80;10.77;;;;;;;19.24;68.50;101889.34;5040487;28;20045;-83
2022/09/05 02:00:55;;;;;;;14.45;10.70;;;;;;;19.28;68.32;101895.81;5058199;28;20029;-83
2022/09/05 02:03:35;;;;;;;16.70;10.95;;;;;;;19.23;68.73;101893.44;5060960;28;20079;-83
2022/09/05 02:06:26;;;;;;;12.07;10.35;;;;;;;19.20;68.69;101891.41;5058074;28;20460;-83
2022/09/05 02:09:04;;;;;;;13.30;10.63;;;;;;;19.22;68.30;101896.66;5055340;28;20082;-83
2022/09/05 02:11:44;;;;;;;14.40;10.95;;;;;;;19.11;68.90;101893.88;5053373;28;20488;-84
2022/09/05 02:14:50;;;;;;;15.35;12.10;;;;;;;19.11;68.64;101891.06;5055182;28;20111;-82
2022/09/05 02:17:28;;;;;;;11.25;9.65;;;;;;;19.06;68.86;101897.97;5048771;28;20047;-82
2022/09/05 02:20:21;;;;;;;13.95;10.98;;;;;;;19.06;69.02;101895.13;5053302;28;20086;-83
2022/09/05 02:23:04;;;;;;;12.90;11.38;;;;;;;19.06;68.92;101891.50;5054214;28;20048;-83
2022/09/05 02:25:40;;;;;;;12.98;11.45;;;;;;;19.00;69.05;101901.66;5039384;28;20109;-83
2022/09/05 02:28:35;;;;;;;14.57;10.85;;;;;;;19.00;69.37;101904.50;5055344;28;20045;-83
2022/09/05 02:31:11;;;;;;;11.82;10.63;;;;;;;19.00;68.78;101890.31;5018372;28;20059;-82
2022/09/05 02:33:51;;;;;;;14.90;10.57;;;;;;;18.92;70.08;101894.38;5055595;28;20047;-83
2022/09/05 02:36:31;;;;;;;13.38;10.20;;;;;;;18.95;68.99;101904.91;5053198;28;20086;-83
2022/09/05 02:39:12;;;;;;;13.38;10.90;;;;;;;18.91;69.18;101899.25;5050255;28;20048;-83
2022/09/05 02:41:47;;;;;;;11.75;9.93;;;;;;;18.91;69.16;101892.75;5037951;28;20032;-84
2022/09/05 02:44:31;;;;;;;13.55;11.18;;;;;;;18.82;69.23;101899.66;5058435;28;20028;-84
2022/09/05 02:47:06;;;;;;;12.98;10.52;;;;;;;18.86;69.10;101903.31;5041098;28;20425;-84
2022/09/05 02:49:46;;;;;;;12.73;10.25;;;;;;;18.86;68.64;101897.63;5041740;28;20051;-83
2022/09/05 02:52:14;;;;;;;11.77;10.57;;;;;;;18.87;69.26;101899.25;5034232;28;20048;-82
2022/09/05 02:54:43;;;;;;;12.68;11.35;;;;;;;18.83;68.99;101892.78;5054578;28;20575;-84
2022/09/05 02:57:17;;;;;;;13.25;11.07;;;;;;;18.77;69.41;101900.06;5052207;28;20037;-82
2022/09/05 02:59:52;;;;;;;15.98;11.50;;;;;;;18.76;68.90;101892.78;5054142;28;20031;-84
2022/09/05 03:02:26;;;;;;;16.85;10.90;;;;;;;18.74;69.92;101891.56;5053502;28;20044;-82
2022/09/05 03:05:01;;;;;;;12.57;10.77;;;;;;;18.71;69.26;101896.03;5054742;28;20377;-83
2022/09/05 03:07:44;;;;;;;11.52;10.25;;;;;;;18.70;69.11;101894.44;5059622;28;20040;-83
2022/09/05 03:10:35;;;;;;;15.80;11.20;;;;;;;18.67;69.25;101898.09;5035527;28;20387;-83
2022/09/05 03:13:13;;;;;;;14.57;11.25;;;;;;;18.67;69.50;101909.41;5055349;28;20036;-82
2022/09/05 03:16:12;;;;;;;12.50;11.20;;;;;;;18.67;69.05;101906.59;5033282;28;20383;-82
2022/09/05 03:18:59;;;;;;;15.68;10.93;;;;;;;18.57;69.85;101901.75;5040385;28;20381;-83
2022/09/05 03:22:02;;;;;;;14.35;11.65;;;;;;;18.58;69.42;101909.06;5042256;28;20459;-83
2022/09/05 03:24:39;;;;;;;14.52;11.98;;;;;;;18.61;68.98;101913.88;5055527;28;20029;-83
2022/09/05 03:27:17;;;;;;;13.85;10.25;;;;;;;18.59;69.32;101905.78;5035545;28;20036;-82
2022/09/05 03:30:02;;;;;;;14.60;11.20;;;;;;;18.52;69.81;101907.84;5053858;28;20036;-82
2022/09/05 03:32:55;;;;;;;14.60;11.43;;;;;;;18.48;69.78;101905.81;5058063;28;20086;-83
2022/09/05 03:35:41;;;;;;;13.15;11.52;;;;;;;18.43;69.84;101920.41;5055977;28;21181;-83
2022/09/05 03:38:46;;;;;;;14.48;11.73;;;;;;;18.41;69.83;101913.53;5049485;28;20488;-82
2022/09/05 03:41:43;;;;;;;15.23;12.82;;;;;;;18.37;70.67;101912.72;5050457;28;20028;-84
2022/09/05 03:44:45;;;;;;;15.05;12.18;;;;;;;18.36;70.19;101909.09;5057810;28;20382;-83
2022/09/05 03:47:40;;;;;;;15.27;12.77;;;;;;;18.36;70.46;101902.59;5036688;28;20051;-83
2022/09/05 03:50:44;;;;;;;12.80;11.40;;;;;;;18.39;70.14;101905.44;5019254;28;20051;-83
2022/09/05 03:53:48;;;;;;;13.35;10.70;;;;;;;18.29;70.76;101912.72;5050946;28;20050;-83
2022/09/05 03:56:44;;;;;;;15.40;11.75;;;;;;;18.26;70.09;101901.41;5009208;28;20036;-83
2022/09/05 03:59:21;;;;;;;12.70;11.15;;;;;;;18.23;70.87;101922.03;5036874;28;20132;-83
2022/09/05 04:01:53;;;;;;;12.57;11.27;;;;;;;18.21;70.47;101911.09;5038716;28;20093;-82
2022/09/05 04:04:43;;;;;;;17.45;13.00;;;;;;;18.28;70.39;101916.00;5038355;28;20060;-83
2022/09/05 04:07:21;;;;;;;13.60;11.32;;;;;;;18.15;70.91;101926.94;5053931;28;20037;-82
2022/09/05 04:09:51;;;;;;;16.25;12.25;;;;;;;18.19;70.25;101922.03;5038372;28;20620;-82
2022/09/05 04:12:35;;;;;;;14.85;12.15;;;;;;;18.14;71.23;101933.00;5052732;28;20036;-83
2022/09/05 04:15:06;;;;;;;12.05;10.38;;;;;;;18.24;70.43;101929.34;5053870;28;20031;-82
2022/09/05 04:17:46;;;;;;;15.38;11.80;;;;;;;18.21;70.68;101924.47;5037168;28;20540;-82
2022/09/05 04:20:48;;;;;;;15.00;13.23;;;;;;;18.18;70.69;101930.97;5047572;28;20032;-83
2022/09/05 04:23:49;;;;;;;13.00;11.60;;;;;;;18.21;70.59;101930.16;5051881;28;20099;-83
2022/09/05 04:26:44;;;;;;;12.30;11.10;;;;;;;18.15;70.41;101920.44;5047069;28;20049;-83
2022/09/05 04:29:43;;;;;;;14.23;12.10;;;;;;;18.17;70.28;101926.50;5032670;28;20373;-83
2022/09/05 04:32:46;;;;;;;16.95;12.65;;;;;;;18.15;71.14;101926.09;5039344;28;20044;-83
2022/09/05 04:35:46;;;;;;;12.98;11.18;;;;;;;18.11;70.58;101925.28;5054939;28;20379;-84
2022/09/05 04:38:14;;;;;;;14.00;12.40;;;;;;;18.09;71.01;101922.88;5055331;28;20497;-83
2022/09/05 04:40:44;;;;;;;14.93;12.05;;;;;;;18.07;71.07;101919.63;5053323;28;20036;-82
2022/09/05 04:43:31;;;;;;;13.05;11.75;;;;;;;18.01;71.79;101930.56;5058574;28;20059;-82
2022/09/05 04:46:24;;;;;;;15.18;13.57;;;;;;;17.91;72.34;101922.06;5051448;28;20405;-83
2022/09/05 04:49:04;;;;;;;14.93;12.70;;;;;;;17.94;72.14;101929.72;5032514;28;20098;-83
2022/09/05 04:51:35;;;;;;;16.60;13.10;;;;;;;18.00;71.44;101940.25;5036590;28;20041;-83
2022/09/05 04:54:19;;;;;;;18.67;13.23;;;;;;;17.98;71.43;101928.53;5048242;28;20492;-82
2022/09/05 04:56:50;;;;;;;14.88;12.02;;;;;;;17.96;70.95;101925.31;5047431;28;20091;-82
2022/09/05 04:59:25;;;;;;;16.38;12.18;;;;;;;18.01;70.84;101936.22;5047230;28;20025;-82
2022/09/05 05:01:59;;;;;;;14.27;11.88;;;;;;;18.01;70.62;101944.72;5032529;28;20043;-84
2022/09/05 05:04:29;;;;;;;14.60;11.70;;;;;;;18.01;70.65;101941.88;5054364;28;20019;-83
2022/09/05 05:07:07;;;;;;;13.75;12.25;;;;;;;17.90;71.86;101943.91;5055688;28;20036;-83
2022/09/05 05:09:43;;;;;;;16.63;13.13;;;;;;;17.91;70.98;101934.19;5051357;28;20028;-82
2022/09/05 05:12:29;;;;;;;15.57;13.10;;;;;;;17.91;71.25;101939.84;5041559;28;20025;-83
2022/09/05 05:15:02;;;;;;;15.75;13.10;;;;;;;17.95;71.34;101946.31;5054038;28;20036;-82
2022/09/05 05:17:28;;;;;;;16.25;12.82;;;;;;;17.88;71.88;101949.16;5039831;28;20036;-82
2022/09/05 05:20:21;;;;;;;16.45;13.13;;;;;;;17.96;70.87;101953.63;5043220;28;20051;-83
2022/09/05 05:22:57;;;;;;;23.80;14.45;;;;;;;17.94;70.92;101955.22;5031841;28;20066;-82
2022/09/05 05:25:23;;;;;;;14.05;12.32;;;;;;;17.95;71.24;101957.66;5048920;28;20041;-82
2022/09/05 05:28:04;;;;;;;17.92;13.50;;;;;;;17.87;71.53;101945.50;5032434;28;20029;-82
2022/09/05 05:30:32;;;;;;;16.10;13.20;;;;;;;17.95;71.11;101952.00;5029363;28;21708;-82
2022/09/05 05:33:22;;;;;;;16.42;13.70;;;;;;;17.88;71.81;101947.13;5028945;28;20063;-82
2022/09/05 05:35:48;;;;;;;16.17;13.55;;;;;;;17.99;70.81;101958.47;5034468;28;20021;-82
2022/09/05 05:38:16;;;;;;;16.80;14.68;;;;;;;17.87;71.85;101956.03;5050683;28;20047;-82
2022/09/05 05:40:51;;;;;;;18.23;13.23;;;;;;;17.78;72.07;101952.75;5044321;28;20033;-82
2022/09/05 05:43:24;;;;;;;14.45;12.90;;;;;;;17.98;70.85;101947.53;5056174;28;20052;-82
2022/09/05 05:45:58;;;;;;;17.95;12.73;;;;;;;17.96;70.53;101947.97;5036773;28;20125;-82
2022/09/05 05:48:29;;;;;;;13.85;12.35;;;;;;;17.98;70.68;101951.22;5042268;28;20045;-82
2022/09/05 05:51:25;;;;;;;16.40;14.60;;;;;;;17.93;71.15;101948.75;5033139;28;20149;-82
2022/09/05 05:54:16;;;;;;;16.27;13.88;;;;;;;18.03;69.85;101947.97;5033522;28;20048;-82
2022/09/05 05:56:49;;;;;;;15.35;13.38;;;;;;;18.04;69.97;101946.72;5054133;28;20036;-83
2022/09/05 05:59:46;;;;;;;14.98;12.77;;;;;;;18.05;69.52;101937.03;5033607;28;20551;-83
2022/09/05 06:02:32;;;;;;;13.23;11.18;;;;;;;18.12;70.05;101941.88;5027082;28;20032;-82
2022/09/05 06:05:17;;;;;;;19.35;13.63;;;;;;;18.08;69.64;101947.53;5034069;28;20090;-83
2022/09/05 06:08:20;;;;;;;20.25;14.10;;;;;;;18.10;69.64;101946.34;5025102;28;20111;-83
2022/09/05 06:11:13;;;;;;;;;;;;;;;17.97;72.72;101948.78;5042635;28;20079;-82
2022/09/05 06:14:16;;;;;;;16.23;14.03;;;;;;;18.21;70.93;101947.94;5036730;28;20418;-80
2022/09/05 06:17:24;;;;;;;46.50;18.58;;;;;;;18.21;71.55;101947.94;5044186;28;20233;-80
2022/09/05 06:20:13;;;;;;;28.85;17.38;;;;;;;18.22;71.67;101957.28;4962948;28;20046;-79
2022/09/05 06:23:12;;;;;;;29.23;18.92;;;;;;;18.19;71.39;101955.25;5051201;28;20485;-78
2022/09/05 06:26:06;;;;;;;23.65;15.10;;;;;;;18.21;70.20;101953.63;5054984;28;20039;-77
2022/09/05 06:29:11;;;;;;;23.42;15.88;;;;;;;18.44;69.23;101964.53;5036731;28;20492;-80
2022/09/05 06:31:59;;;;;;;24.13;16.55;;;;;;;18.41;71.06;101956.06;5058662;28;20033;-79
2022/09/05 06:34:52;;;;;;;21.50;15.32;;;;;;;18.34;70.34;101962.53;5061891;28;20480;-76
2022/09/05 06:37:45;;;;;;;23.30;17.98;;;;;;;18.23;70.13;101961.72;5041161;28;20037;-76
2022/09/05 06:40:26;;;;;;;21.55;13.60;;;;;;;18.56;69.31;101962.53;5067990;28;20052;-80
2022/09/05 06:43:08;;;;;;;23.23;15.60;;;;;;;18.72;69.37;101971.41;5064750;28;20484;-80
2022/09/05 06:46:04;;;;;;;22.70;16.53;;;;;;;18.48;73.24;101968.19;5063429;28;20058;-77
2022/09/05 06:48:35;;;;;;;20.20;14.48;;;;;;;18.75;68.54;101970.59;5044279;28;20716;-79
2022/09/05 06:51:41;;;;;;;16.83;14.27;;;;;;;18.74;71.08;101968.97;5059454;28;20040;-76
2022/09/05 06:54:09;;;;;;;21.85;16.70;;;;;;;19.50;71.70;101976.03;5060068;28;20041;-79
2022/09/05 06:56:43;;;;;;;25.67;20.27;;;;;;;19.18;72.49;101976.16;5040300;28;20036;-79
2022/09/05 06:59:39;;;;;;;18.50;15.10;;;;;;;19.72;71.13;101972.28;5064044;28;20057;-80
2022/09/05 07:02:22;;;;;;;23.45;17.17;;;;;;;19.83;70.55;101965.31;5061056;28;20150;-79
2022/09/05 07:05:17;;;;;;;;;;;;;;;20.01;70.10;101976.56;5061418;28;20060;-79
2022/09/05 07:07:53;;;;;;;29.40;20.70;;;;;;;19.57;72.12;101974.38;4972929;28;19921;-79
2022/09/05 07:10:27;;;;;;;30.83;21.15;;;;;;;19.45;72.66;101979.28;5044607;28;20043;-79
2022/09/05 07:13:08;;;;;;;24.88;18.98;;;;;;;19.90;70.59;101976.63;5069576;28;20033;-79
2022/09/05 07:15:51;;;;;;;28.08;20.42;;;;;;;20.00;70.79;101986.28;5068229;28;20043;-77
2022/09/05 07:18:27;;;;;;;20.55;15.75;;;;;;;20.32;70.19;101985.22;5059698;28;20779;-76
2022/09/05 07:20:57;;;;;;;22.58;16.88;;;;;;;20.27;70.67;101988.53;5063675;28;20035;-77
2022/09/05 07:23:50;;;;;;;24.75;17.33;;;;;;;20.47;70.27;101986.75;5045268;28;20115;-80
2022/09/05 07:26:19;;;;;;;32.65;20.85;;;;;;;20.56;70.20;101991.16;5041850;28;20020;-80
2022/09/05 07:28:51;;;;;;;18.85;13.60;;;;;;;21.02;67.81;101982.16;5065211;28;20051;-79
2022/09/05 07:31:25;;;;;;;16.25;12.98;;;;;;;21.32;66.90;101983.41;5040303;28;20036;-80
2022/09/05 07:34:25;;;;;;;15.50;12.73;;;;;;;21.34;66.58;101985.84;5060710;28;20520;-77
2022/09/05 07:36:54;;;;;;;27.80;14.80;;;;;;;21.38;67.34;101987.41;5039685;28;20522;-77
2022/09/05 07:39:27;;;;;;;17.27;11.90;;;;;;;21.35;66.31;101984.59;5053964;28;20150;-80
2022/09/05 07:41:57;;;;;;;19.05;13.80;;;;;;;21.30;66.70;101986.69;5056553;28;20040;-78
2022/09/05 07:44:28;;;;;;;27.75;19.63;;;;;;;21.01;68.49;101982.56;5066946;28;20036;-78
2022/09/05 07:47:14;;;;;;;23.98;15.27;;;;;;;21.32;67.48;101984.22;5060421;28;20041;-79
2022/09/05 07:49:42;;;;;;;18.42;14.07;;;;;;;21.30;66.83;101981.00;5047590;28;20029;-79
2022/09/05 07:52:17;;;;;;;17.63;12.07;;;;;;;21.55;66.58;101984.78;5040622;28;20084;-76
2022/09/05 07:54:45;;;;;;;31.58;19.45;;;;;;;21.41;68.29;101985.75;5064444;28;20029;-79
2022/09/05 07:57:27;;;;;;;24.15;17.35;;;;;;;21.26;67.77;101985.91;5063615;28;20032;-76
2022/09/05 08:00:18;;;;;;;22.58;14.05;;;;;;;21.49;67.83;101987.31;5043259;28;20035;-79
2022/09/05 08:02:45;;;;;;;31.00;21.27;;;;;;;21.66;67.13;101991.94;5065120;28;20322;-79
2022/09/05 08:05:14;;;;;;;15.30;12.05;;;;;;;21.78;66.49;101992.59;5049329;28;20031;-80
2022/09/05 08:07:43;;;;;;;37.92;21.75;;;;;;;21.76;66.17;101989.34;5047566;28;20103;-76
2022/09/05 08:10:22;;;;;;;25.27;13.25;;;;;;;21.84;65.86;101988.03;5058785;28;20048;-79
2022/09/05 08:12:54;;;;;;;34.13;23.48;;;;;;;21.72;68.19;101995.94;5041784;28;20114;-79
2022/09/05 08:15:26;;;;;;;18.60;15.23;;;;;;;21.84;68.52;101983.16;5045597;28;20119;-79
2022/09/05 08:18:00;;;;;;;29.63;22.63;;;;;;;21.78;64.75;101981.19;5046983;28;20031;-79
2022/09/05 08:20:33;;;;;;;31.50;19.98;;;;;;;21.83;66.48;101972.97;5064729;28;20043;-77
2022/09/05 08:23:17;;;;;;;33.05;22.90;;;;;;;21.97;66.75;101979.69;5063916;28;20025;-80
2022/09/05 08:25:53;;;;;;;28.38;17.92;;;;;;;21.96;66.81;101986.63;5046867;28;20675;-78
2022/09/05 08:28:39;;;;;;;36.20;22.75;;;;;;;22.00;67.65;101985.34;5065479;28;20037;-78
2022/09/05 08:31:18;;;;;;;35.00;21.75;;;;;;;22.05;66.59;101982.00;5047482;28;20049;-80
2022/09/05 08:33:47;;;;;;;39.00;24.13;;;;;;;22.25;66.64;101978.47;5062514;28;20100;-76
2022/09/05 08:36:36;;;;;;;32.35;19.80;;;;;;;22.26;65.60;101982.91;5043145;28;20051;-79
2022/09/05 08:39:05;;;;;;;23.58;16.17;;;;;;;22.24;67.97;101979.69;5040752;28;20831;-80
2022/09/05 08:41:40;;;;;;;40.33;25.05;;;;;;;22.38;65.90;101979.44;5063192;28;20032;-77
2022/09/05 08:44:15;;;;;;;28.40;19.75;;;;;;;22.47;64.90;101974.00;5043656;28;20110;-79
2022/09/05 08:46:54;;;;;;;26.15;17.33;;;;;;;22.57;66.80;101977.91;5065021;28;20051;-76
2022/09/05 08:49:35;;;;;;;39.30;25.50;;;;;;;22.90;64.80;101976.06;5044658;28;20050;-76
2022/09/05 08:52:19;;;;;;;35.15;21.33;;;;;;;22.91;65.41;101980.50;5039077;28;20035;-80
2022/09/05 08:54:44;;;;;;;28.45;16.98;;;;;;;22.84;64.02;101977.00;5058387;28;20040;-80
2022/09/05 08:57:41;;;;;;;31.13;20.05;;;;;;;22.97;65.24;101977.97;5038534;28;20034;-75
2022/09/05 09:00:09;;;;;;;38.72;22.90;;;;;;;23.13;63.37;101980.13;5057226;28;20036;-77
2022/09/05 09:02:45;;;;;;;35.17;20.70;;;;;;;23.21;64.11;101981.59;5054715;28;20025;-77
2022/09/05 09:05:56;;;;;;;38.05;22.52;;;;;;;23.51;63.26;101976.88;5057100;28;20032;-80
2022/09/05 09:08:50;;;;;;;39.47;21.60;;;;;;;23.34;64.21;101970.31;5020846;28;23316;-77
2022/09/05 09:11:36;;;;;;;41.58;22.35;;;;;;;23.62;62.74;101977.44;5054597;28;20558;-78
2022/09/05 09:14:35;;;;;;;33.80;20.10;;;;;;;23.80;62.21;101976.25;5055274;28;20452;-79
2022/09/05 09:17:35;;;;;;;33.40;19.13;;;;;;;23.99;61.16;101978.25;5050875;28;20035;-79
2022/09/05 09:20:16;;;;;;;31.95;19.30;;;;;;;23.94;61.16;101978.78;5043129;28;20041;-79
2022/09/05 09:22:47;;;;;;;36.72;19.05;;;;;;;23.81;62.40;101975.03;5041785;28;20033;-77
2022/09/05 09:25:19;;;;;;;30.80;18.48;;;;;;;24.24;60.33;101971.09;5058772;28;20028;-80
2022/09/05 09:27:57;;;;;;;33.23;18.13;;;;;;;24.41;60.11;101975.56;5035008;28;20166;-76
2022/09/05 09:30:22;;;;;;;30.80;18.50;;;;;;;24.45;59.28;101967.69;5035745;28;20044;-80
2022/09/05 09:32:49;;;;;;;31.60;17.77;;;;;;;24.47;60.12;101964.38;5059405;28;20040;-79
2022/09/05 09:35:52;;;;;;;53.33;18.75;;;;;;;24.58;59.21;101959.19;5034499;28;20404;-77
2022/09/05 09:38:48;;;;;;;28.40;16.42;;;;;;;24.67;59.30;101962.25;5045063;28;20144;-78
2022/09/05 09:41:44;;;;;;;23.70;15.77;;;;;;;24.43;59.36;101967.31;5045497;28;20055;-79
2022/09/05 09:44:28;;;;;;;24.27;15.68;;;;;;;24.80;58.76;101965.16;5051702;28;20040;-80
2022/09/05 09:46:54;;;;;;;22.17;13.50;;;;;;;24.62;59.12;101970.56;5058134;28;20070;-79
2022/09/05 09:49:22;;;;;;;21.83;15.57;;;;;;;24.90;57.83;101958.34;5059824;28;20029;-77
2022/09/05 09:51:51;;;;;;;27.15;14.70;;;;;;;24.76;58.45;101958.72;5045137;28;20052;-81
2022/09/05 09:54:53;;;;;;;24.45;13.90;;;;;;;24.96;56.93;101961.44;5062628;28;20027;-80
2022/09/05 09:57:50;;;;;;;17.38;10.45;;;;;;;25.16;56.24;101955.53;5061851;28;20071;-76
2022/09/05 10:00:20;;;;;;;24.83;14.45;;;;;;;25.27;56.15;101958.13;5064266;28;20028;-80
2022/09/05 10:03:06;;;;;;;15.85;11.30;;;;;;;25.22;57.32;101953.75;5047634;28;21268;-80
2022/09/05 10:05:56;;;;;;;24.60;15.65;;;;;;;25.66;55.40;101951.19;5040458;28;20514;-80
2022/09/05 10:08:55;;;;;;;23.40;14.02;;;;;;;25.38;55.90;101949.19;5050236;28;20032;-80
2022/09/05 10:11:37;;;;;;;19.73;11.90;;;;;;;25.80;54.09;101937.66;5059847;28;20086;-80
2022/09/05 10:14:24;;;;;;;21.60;11.77;;;;;;;26.01;54.72;101941.91;5067440;28;20025;-80
2022/09/05 10:17:22;;;;;;;18.83;12.20;;;;;;;26.16;53.83;101937.28;5044237;28;20417;-81
2022/09/05 10:20:24;;;;;;;25.15;13.88;;;;;;;26.35;53.28;101935.41;5004327;28;20039;-81
2022/09/05 10:22:50;;;;;;;18.35;11.60;;;;;;;25.83;55.02;101936.75;5064806;28;20502;-80
2022/09/05 10:25:30;;;;;;;21.77;11.57;;;;;;;26.50;52.51;101925.03;5046619;28;20032;-80
2022/09/05 10:28:30;;;;;;;18.35;10.32;;;;;;;26.40;52.42;101937.72;5064250;28;20039;-80
2022/09/05 10:31:23;;;;;;;18.42;10.00;;;;;;;26.66;52.72;101934.78;5048407;28;20394;-81
2022/09/05 10:33:55;;;;;;;;;;;;;;;26.97;50.88;101929.91;5047711;28;20523;-80
2022/09/05 10:36:24;;;;;;;16.98;10.32;;;;;;;26.92;51.13;101913.28;5068891;28;19916;-81
2022/09/05 10:38:59;;;;;;;18.38;7.95;;;;;;;27.02;50.52;101916.22;5061794;28;20044;-80
2022/09/05 10:41:39;;;;;;;15.65;9.18;;;;;;;27.28;49.20;101914.81;5045061;28;20033;-80
2022/09/05 10:44:09;;;;;;;15.32;7.90;;;;;;;27.26;48.79;101908.75;5060373;28;20141;-81
2022/09/05 10:46:54;;;;;;;20.60;9.07;;;;;;;27.44;48.32;101902.25;5038042;28;20063;-81
2022/09/05 10:49:26;;;;;;;9.35;5.55;;;;;;;27.68;46.47;101904.59;5062295;28;20458;-80
2022/09/05 10:52:10;;;;;;;9.57;4.40;;;;;;;27.98;43.96;101902.97;5058348;28;20036;-80
2022/09/05 10:54:40;;;;;;;6.05;4.90;;;;;;;27.72;46.17;101897.44;5063376;28;20032;-80
2022/09/05 10:57:33;;;;;;;8.85;6.03;;;;;;;28.09;45.13;101897.56;5048924;28;20025;-81
2022/09/05 11:00:09;;;;;;;9.30;5.32;;;;;;;27.78;44.91;101892.63;5064792;28;20036;-81
2022/09/05 11:02:42;;;;;;;10.15;5.43;;;;;;;27.89;44.66;101886.50;5047717;28;20024;-78
2022/09/05 11:05:24;;;;;;;7.28;4.53;;;;;;;27.78;43.38;101897.59;5060914;28;20037;-78
2022/09/05 11:07:52;;;;;;;8.98;5.57;;;;;;;27.64;44.83;101892.44;5070215;28;20039;-78
2022/09/05 11:10:22;;;;;;;8.60;5.03;;;;;;;27.89;43.59;101879.91;5046822;28;20433;-77
2022/09/05 11:13:13;;;;;;;6.78;4.15;;;;;;;28.27;42.34;101881.56;5057930;28;20072;-77
2022/09/05 11:16:06;;;;;;;10.40;4.47;;;;;;;28.63;41.91;101877.97;5047132;28;20040;-79
2022/09/05 11:19:03;;;;;;;10.55;4.05;;;;;;;28.22;43.09;101885.91;5043555;28;20162;-79
2022/09/05 11:21:40;;;;;;;6.78;3.85;;;;;;;28.04;43.89;101883.00;5041012;28;20037;-79
2022/09/05 11:24:43;;;;;;;8.80;4.75;;;;;;;28.62;41.88;101876.34;5061949;28;20436;-78
2022/09/05 11:27:39;;;;;;;4.50;3.65;;;;;;;28.58;42.74;101876.50;5030911;28;20037;-79
2022/09/05 11:30:05;;;;;;;10.15;3.92;;;;;;;28.99;40.89;101879.19;5042172;28;20032;-80
2022/09/05 11:33:01;;;;;;;3.85;3.40;;;;;;;29.11;40.07;101880.28;5042932;28;20036;-80
2022/09/05 11:35:29;;;;;;;5.72;3.33;;;;;;;29.25;40.04;101875.94;5038918;28;20052;-77
2022/09/05 11:37:57;;;;;;;6.88;4.28;;;;;;;29.14;40.58;101870.69;5051565;28;20578;-79
2022/09/05 11:40:44;;;;;;;6.30;3.83;;;;;;;29.09;40.63;101874.19;5032198;28;20064;-79
2022/09/05 11:43:29;;;;;;;9.05;3.88;;;;;;;28.67;40.97;101872.84;5042369;28;20463;-80
2022/09/05 11:46:03;;;;;;;5.90;4.63;;;;;;;29.31;40.55;101865.34;5043806;28;20592;-80
2022/09/05 11:48:47;;;;;;;7.07;4.10;;;;;;;29.02;40.93;101869.56;5036870;28;20389;-78
2022/09/05 11:51:37;;;;;;;4.93;3.50;;;;;;;29.49;38.94;101859.47;5039304;28;20139;-79
2022/09/05 11:54:20;;;;;;;4.65;3.17;;;;;;;29.23;39.80;101862.00;5055415;28;20387;-79
2022/09/05 11:57:13;;;;;;;6.05;3.50;;;;;;;28.96;38.05;101878.03;5051623;28;20109;-79
2022/09/05 12:00:14;;;;;;;6.32;3.72;;;;;;;29.98;38.64;101863.25;5043355;28;20538;-78
2022/09/05 12:03:02;;;;;;;6.05;3.20;;;;;;;29.41;38.84;101860.31;5056337;28;20112;-79
2022/09/05 12:05:51;;;;;;;4.68;3.28;;;;;;;29.86;38.49;101853.53;5038630;28;20038;-78
2022/09/05 12:08:35;;;;;;;4.32;3.33;;;;;;;29.74;39.24;101863.22;5054451;28;20032;-78
2022/09/05 12:11:19;;;;;;;4.85;3.10;;;;;;;29.81;37.64;101856.28;5040710;28;20032;-79
2022/09/05 12:13:58;;;;;;;4.43;3.28;;;;;;;30.25;36.22;101855.66;5057419;28;20033;-79
2022/09/05 12:16:46;;;;;;;4.85;2.92;;;;;;;29.24;38.29;101862.78;5042071;28;20064;-79
2022/09/05 12:19:20;;;;;;;4.85;2.45;;;;;;;29.23;39.06;101859.13;5045750;28;20372;-79
2022/09/05 12:22:01;;;;;;;6.68;3.50;;;;;;;29.22;37.71;101853.81;5056963;28;20400;-79